Time;durP1;ratioP1;P1;durP2;ratioP2;P2;SDS_P1;SDS_P2;PMS_P1;PMS_P2;Temp;Humidity;BMP_temperature;BMP_pressure;BME280_temperature;BME280_humidity;BME280_pressure;Samples;Min_cycle;Max_cycle;Signal;HPM_P1;HPM_P2
2021/06/12 00:02:26;;;;;;;12.70;10.50;;;20.00;2.00;;;;;;5026878;28;20428;-66
2021/06/12 00:05:15;;;;;;;10.68;9.50;;;19.90;2.20;;;;;;5043110;28;20120;-65
2021/06/12 00:08:03;;;;;;;11.98;10.68;;;19.90;2.60;;;;;;5044795;28;20044;-66
2021/06/12 00:10:50;;;;;;;13.95;9.95;;;19.80;2.50;;;;;;5044703;28;20118;-66
2021/06/12 00:13:38;;;;;;;15.63;10.82;;;19.80;2.80;;;;;;5017255;28;20049;-65
2021/06/12 00:16:26;;;;;;;13.32;11.00;;;19.90;2.60;;;;;;5041861;28;20095;-66
2021/06/12 00:19:16;;;;;;;13.25;10.43;;;19.80;3.10;;;;;;5040875;28;20128;-66
2021/06/12 00:22:04;;;;;;;11.93;10.50;;;19.80;2.90;;;;;;5045432;28;20496;-67
2021/06/12 00:24:52;;;;;;;12.45;10.13;;;19.60;3.00;;;;;;5031385;28;20049;-66
2021/06/12 00:27:40;;;;;;;12.27;10.88;;;19.60;3.10;;;;;;5040905;28;20052;-65
2021/06/12 00:30:29;;;;;;;13.90;10.70;;;19.60;3.10;;;;;;5041862;28;20057;-65
2021/06/12 00:33:17;;;;;;;14.20;10.52;;;19.60;3.10;;;;;;5046695;28;20432;-65
2021/06/12 00:36:06;;;;;;;11.90;10.70;;;19.60;3.00;;;;;;5044003;28;20419;-65
2021/06/12 00:38:54;;;;;;;14.23;11.77;;;19.60;3.10;;;;;;5028388;28;20045;-66
2021/06/12 00:41:43;;;;;;;16.73;11.90;;;19.50;3.70;;;;;;5041821;28;20056;-66
2021/06/12 00:44:31;;;;;;;15.25;11.57;;;19.40;4.50;;;;;;5043698;28;20052;-66
2021/06/12 00:47:19;;;;;;;13.45;12.05;;;19.40;4.70;;;;;;5045937;28;20494;-66
2021/06/12 00:50:08;;;;;;;13.20;11.80;;;19.40;5.00;;;;;;5045637;28;20044;-66
2021/06/12 00:52:58;;;;;;;13.35;11.68;;;19.30;5.10;;;;;;5029228;28;20044;-66
2021/06/12 00:55:47;;;;;;;16.25;11.95;;;19.30;6.30;;;;;;5043393;28;20191;-66
2021/06/12 00:58:36;;;;;;;15.75;12.00;;;19.20;6.60;;;;;;5041392;28;20124;-66
2021/06/12 01:01:24;;;;;;;13.63;12.20;;;19.10;6.80;;;;;;5028985;28;20557;-66
2021/06/12 01:04:12;;;;;;;12.85;11.50;;;19.10;7.70;;;;;;5044041;28;20045;-66
2021/06/12 01:07:00;;;;;;;17.48;12.88;;;19.10;8.10;;;;;;5042798;28;20084;-65
2021/06/12 01:09:49;;;;;;;14.32;12.73;;;19.10;8.20;;;;;;5043601;28;20530;-64
2021/06/12 01:12:45;;;;;;;16.10;12.15;;;19.10;8.40;;;;;;5042339;28;20056;-65
2021/06/12 01:15:37;;;;;;;17.05;12.70;;;19.10;8.10;;;;;;5046573;28;20041;-66
2021/06/12 01:18:29;;;;;;;18.15;13.85;;;19.10;7.80;;;;;;5039528;28;20049;-66
2021/06/12 01:21:30;;;;;;;15.55;13.82;;;19.00;8.60;;;;;;5042095;28;20103;-66
2021/06/12 01:24:34;;;;;;;17.15;12.93;;;18.90;9.00;;;;;;5039340;28;20739;-66
2021/06/12 01:27:49;;;;;;;15.15;13.35;;;18.90;8.80;;;;;;5026616;28;20193;-65
2021/06/12 01:30:42;;;;;;;17.15;13.00;;;18.80;8.80;;;;;;5041691;28;20136;-65
2021/06/12 01:33:30;;;;;;;15.52;13.18;;;18.80;8.80;;;;;;5045982;28;20535;-65
2021/06/12 01:36:18;;;;;;;14.70;13.13;;;18.80;8.90;;;;;;5043353;28;20049;-65
2021/06/12 01:39:06;;;;;;;19.08;13.20;;;18.80;9.10;;;;;;5036155;28;20080;-65
2021/06/12 01:41:58;;;;;;;16.77;13.27;;;18.70;9.10;;;;;;5042619;28;20048;-66
2021/06/12 01:44:47;;;;;;;15.93;13.43;;;18.70;9.30;;;;;;5045819;28;20041;-65
2021/06/12 01:47:36;;;;;;;18.20;13.88;;;18.70;9.60;;;;;;5042918;28;20464;-65
2021/06/12 01:50:25;;;;;;;14.13;12.70;;;18.80;9.70;;;;;;5039154;28;20068;-66
2021/06/12 01:53:17;;;;;;;15.70;12.90;;;18.70;9.20;;;;;;5036735;28;20049;-66
2021/06/12 01:56:08;;;;;;;15.77;13.60;;;18.70;9.20;;;;;;5045944;28;20543;-67
2021/06/12 01:58:57;;;;;;;16.83;13.73;;;18.70;10.00;;;;;;5044234;28;20059;-65
2021/06/12 02:01:48;;;;;;;16.00;13.32;;;18.60;10.70;;;;;;5042037;28;20115;-65
2021/06/12 02:04:40;;;;;;;19.05;13.73;;;18.60;10.70;;;;;;5040141;28;20072;-66
2021/06/12 02:07:30;;;;;;;15.30;13.73;;;18.60;10.90;;;;;;5042056;28;20052;-65
2021/06/12 02:10:21;;;;;;;15.10;13.57;;;18.60;10.60;;;;;;5041453;28;20056;-66
2021/06/12 02:13:10;;;;;;;15.85;13.88;;;18.40;11.60;;;;;;5046679;28;20075;-66
2021/06/12 02:15:59;;;;;;;17.20;14.27;;;18.40;12.10;;;;;;5042797;28;20056;-66
2021/06/12 02:18:47;;;;;;;18.42;14.23;;;18.40;11.80;;;;;;5040564;28;20639;-64
2021/06/12 02:21:38;;;;;;;17.05;13.95;;;18.40;11.80;;;;;;5036549;28;20521;-65
2021/06/12 02:24:26;;;;;;;17.80;14.18;;;18.40;11.80;;;;;;5043765;28;20056;-65
2021/06/12 02:27:17;;;;;;;19.75;14.52;;;18.30;12.50;;;;;;5042118;28;20059;-65
2021/06/12 02:30:07;;;;;;;16.55;14.18;;;18.30;12.90;;;;;;5038806;28;20045;-66
2021/06/12 02:32:58;;;;;;;18.73;14.68;;;18.20;13.40;;;;;;5042485;28;20199;-66
2021/06/12 02:35:46;;;;;;;20.55;14.05;;;18.20;13.40;;;;;;5030744;28;20783;-64
2021/06/12 02:38:35;;;;;;;16.58;14.15;;;18.30;13.50;;;;;;5042259;28;20415;-65
2021/06/12 02:41:23;;;;;;;20.30;14.65;;;18.30;13.50;;;;;;5038651;28;20088;-65
2021/06/12 02:44:11;;;;;;;19.30;14.25;;;18.20;13.40;;;;;;5038211;28;20403;-65
2021/06/12 02:47:02;;;;;;;15.32;13.73;;;18.20;13.60;;;;;;5044085;28;20388;-65
2021/06/12 02:49:55;;;;;;;15.82;14.15;;;18.10;14.10;;;;;;5045582;28;20127;-64
2021/06/12 02:52:44;;;;;;;19.05;14.05;;;18.00;15.70;;;;;;5043437;28;20053;-65
2021/06/12 02:55:37;;;;;;;18.00;14.65;;;17.90;15.90;;;;;;5039612;28;20060;-65
2021/06/12 02:58:26;;;;;;;17.23;14.65;;;17.90;16.20;;;;;;5040132;28;20088;-65
2021/06/12 03:01:16;;;;;;;17.75;14.35;;;17.90;16.60;;;;;;5043093;28;20147;-66
2021/06/12 03:04:04;;;;;;;16.63;14.90;;;17.90;16.80;;;;;;5043094;28;20049;-66
2021/06/12 03:06:54;;;;;;;19.17;14.77;;;17.90;16.80;;;;;;5038769;28;20296;-65
2021/06/12 03:09:43;;;;;;;18.15;14.70;;;17.90;16.80;;;;;;5039311;28;20098;-64
2021/06/12 03:12:32;;;;;;;16.83;13.68;;;17.80;17.80;;;;;;5040469;28;20049;-64
2021/06/12 03:15:21;;;;;;;17.10;14.38;;;17.80;17.50;;;;;;5033955;28;20504;-64
2021/06/12 03:18:09;;;;;;;16.27;14.65;;;17.90;17.60;;;;;;5042290;28;20045;-65
2021/06/12 03:20:59;;;;;;;15.95;14.00;;;17.80;18.00;;;;;;5038134;28;20068;-65
2021/06/12 03:23:47;;;;;;;16.98;14.23;;;17.70;19.20;;;;;;5041268;28;20555;-65
2021/06/12 03:26:36;;;;;;;16.95;13.68;;;17.70;18.70;;;;;;5044787;28;20095;-65
2021/06/12 03:29:26;;;;;;;17.10;13.98;;;17.70;18.30;;;;;;5039249;28;20132;-65
2021/06/12 03:32:15;;;;;;;20.67;14.70;;;17.80;18.30;;;;;;5038653;28;20411;-65
2021/06/12 03:35:04;;;;;;;16.73;14.05;;;17.80;18.10;;;;;;5036971;28;20097;-66
2021/06/12 03:37:53;;;;;;;19.13;14.98;;;17.80;17.90;;;;;;5041528;28;20056;-65
2021/06/12 03:40:42;;;;;;;17.30;14.48;;;17.90;18.00;;;;;;5039594;28;20064;-65
2021/06/12 03:43:30;;;;;;;18.23;14.48;;;17.90;17.80;;;;;;5041599;28;20049;-66
2021/06/12 03:46:21;;;;;;;16.60;14.35;;;17.80;18.80;;;;;;5038656;28;20128;-65
2021/06/12 03:49:11;;;;;;;16.13;14.48;;;17.80;17.70;;;;;;5036659;28;20056;-65
2021/06/12 03:51:59;;;;;;;15.27;13.68;;;17.90;17.70;;;;;;5042966;28;20098;-65
2021/06/12 03:54:47;;;;;;;16.48;14.10;;;18.10;15.90;;;;;;5030539;28;20048;-65
2021/06/12 03:57:36;;;;;;;14.15;12.65;;;18.30;13.80;;;;;;5027652;28;20056;-65
2021/06/12 04:00:26;;;;;;;15.65;13.65;;;18.60;12.30;;;;;;5041240;28;20424;-66
2021/06/12 04:03:16;;;;;;;17.42;12.57;;;18.80;11.40;;;;;;5041024;28;20649;-66
2021/06/12 04:06:04;;;;;;;15.23;12.73;;;18.30;13.00;;;;;;5049178;28;20040;-66
2021/06/12 04:08:56;;;;;;;14.88;13.32;;;18.70;11.30;;;;;;5042983;28;20053;-66
2021/06/12 04:11:44;;;;;;;15.40;13.00;;;18.60;11.00;;;;;;5039255;28;20049;-65
2021/06/12 04:14:32;;;;;;;14.30;12.80;;;18.30;12.10;;;;;;5028302;28;20049;-65
2021/06/12 04:17:20;;;;;;;14.00;11.88;;;18.30;13.30;;;;;;5042238;28;20377;-65
2021/06/12 04:20:11;;;;;;;13.23;11.80;;;18.40;13.00;;;;;;5048222;28;20048;-66
2021/06/12 04:22:59;;;;;;;14.27;12.40;;;18.40;13.50;;;;;;5042666;28;20047;-66
2021/06/12 04:25:47;;;;;;;15.18;12.45;;;18.50;12.30;;;;;;5045470;28;20053;-65
2021/06/12 04:28:35;;;;;;;15.75;12.57;;;18.40;10.50;;;;;;5042491;28;20634;-65
2021/06/12 04:31:23;;;;;;;12.80;11.30;;;18.50;11.50;;;;;;5045127;28;20126;-65
2021/06/12 04:34:11;;;;;;;14.32;11.65;;;18.70;11.00;;;;;;5044244;28;20127;-66
2021/06/12 04:37:02;;;;;;;12.63;11.38;;;19.00;9.30;;;;;;5043527;28;20076;-65
2021/06/12 04:39:50;;;;;;;12.25;11.05;;;19.00;8.10;;;;;;5042492;28;20138;-65
2021/06/12 04:42:39;;;;;;;13.88;11.20;;;19.50;7.00;;;;;;5038883;28;20119;-65
2021/06/12 04:45:27;;;;;;;13.68;11.18;;;19.80;5.00;;;;;;5031250;28;20056;-65
2021/06/12 04:48:15;;;;;;;13.18;11.75;;;19.80;4.80;;;;;;5043645;28;20080;-65
2021/06/12 04:51:03;;;;;;;14.52;11.65;;;20.10;2.50;;;;;;5042441;28;20041;-65
2021/06/12 04:53:52;;;;;;;11.85;10.65;;;20.90;1.00;;;;;;5038942;28;20416;-65
2021/06/12 04:56:42;;;;;;;11.93;10.73;;;20.50;1.00;;;;;;5028040;28;20044;-66
2021/06/12 04:59:30;;;;;;;11.98;10.30;;;21.50;1.00;;;;;;5045564;28;20048;-65
2021/06/12 05:02:18;;;;;;;12.75;11.20;;;22.00;1.00;;;;;;5042984;28;20041;-65
2021/06/12 05:05:07;;;;;;;12.68;10.95;;;22.60;1.00;;;;;;5041366;28;20059;-66
2021/06/12 05:07:54;;;;;;;12.35;10.82;;;22.60;1.00;;;;;;5041975;28;20143;-65
2021/06/12 05:10:45;;;;;;;12.57;11.25;;;22.40;1.00;;;;;;5030108;28;20743;-66
2021/06/12 05:13:34;;;;;;;13.82;10.05;;;22.80;1.00;;;;;;5040485;28;20161;-66
2021/06/12 05:16:23;;;;;;;16.00;11.00;;;22.70;1.00;;;;;;5041269;28;20094;-66
2021/06/12 05:19:10;;;;;;;11.88;10.63;;;22.40;1.00;;;;;;5039910;28;20119;-66
2021/06/12 05:21:59;;;;;;;12.15;10.95;;;22.00;1.00;;;;;;5042126;28;20052;-66
2021/06/12 05:24:47;;;;;;;12.35;10.90;;;22.10;1.00;;;;;;5027422;28;20424;-66
2021/06/12 05:27:36;;;;;;;13.45;10.65;;;21.50;1.00;;;;;;5028548;28;20052;-66
2021/06/12 05:30:24;;;;;;;13.23;10.57;;;21.00;1.00;;;;;;5039534;28;20124;-66
2021/06/12 05:33:12;;;;;;;15.45;10.80;;;21.20;1.00;;;;;;5039586;28;20053;-67
2021/06/12 05:36:01;;;;;;;11.55;10.35;;;21.60;1.00;;;;;;5046795;28;20045;-65
2021/06/12 05:38:49;;;;;;;12.93;10.77;;;21.10;1.00;;;;;;5041970;28;20052;-65
2021/06/12 05:41:38;;;;;;;12.38;11.07;;;21.50;1.00;;;;;;5041183;28;20102;-65
2021/06/12 05:44:28;;;;;;;14.70;11.75;;;20.80;1.00;;;;;;5040367;28;20504;-66
2021/06/12 05:47:16;;;;;;;14.00;10.93;;;20.70;1.00;;;;;;5044490;28;20040;-66
2021/06/12 05:50:05;;;;;;;14.50;10.98;;;21.40;1.00;;;;;;5046503;28;20055;-66
2021/06/12 05:52:53;;;;;;;13.48;10.93;;;21.80;1.00;;;;;;5025984;28;20044;-67
2021/06/12 05:55:42;;;;;;;11.48;10.27;;;22.30;1.00;;;;;;5040091;28;20554;-66
2021/06/12 05:58:30;;;;;;;11.77;10.43;;;22.40;1.00;;;;;;5038508;28;20045;-67
2021/06/12 06:01:19;;;;;;;10.80;9.73;;;21.70;1.00;;;;;;5044381;28;20041;-65
2021/06/12 06:04:08;;;;;;;13.05;10.40;;;23.00;1.00;;;;;;5026848;28;20053;-66
2021/06/12 06:06:55;;;;;;;12.52;10.40;;;22.60;1.00;;;;;;5039755;28;20122;-66
2021/06/12 06:09:43;;;;;;;15.45;10.15;;;22.40;1.00;;;;;;5025788;28;20056;-65
2021/06/12 06:12:33;;;;;;;11.45;9.85;;;22.10;1.00;;;;;;5041970;28;20044;-65
2021/06/12 06:15:22;;;;;;;11.52;10.32;;;22.10;1.00;;;;;;5029903;28;20122;-65
2021/06/12 06:18:11;;;;;;;11.18;9.95;;;21.90;1.00;;;;;;5039418;28;20068;-65
2021/06/12 06:20:59;;;;;;;11.43;10.23;;;21.90;1.00;;;;;;5038424;28;21171;-66
2021/06/12 06:23:48;;;;;;;12.10;9.93;;;22.30;1.00;;;;;;5041598;28;20488;-65
2021/06/12 06:26:36;;;;;;;11.45;10.25;;;22.40;1.00;;;;;;5046749;28;20060;-66
2021/06/12 06:29:24;;;;;;;11.50;9.75;;;22.70;1.00;;;;;;5042641;28;20352;-66
2021/06/12 06:32:12;;;;;;;11.23;10.13;;;22.80;1.00;;;;;;5040064;28;20041;-66
2021/06/12 06:35:15;;;;;;;12.15;9.63;;;22.90;1.00;;;;;;5042954;28;20041;-67
2021/06/12 06:38:03;;;;;;;11.27;9.73;;;23.60;1.00;;;;;;5039952;28;20048;-66
2021/06/12 06:40:52;;;;;;;11.73;9.63;;;23.60;1.00;;;;;;5042570;28;20121;-66
2021/06/12 06:43:40;;;;;;;9.65;8.70;;;24.30;1.00;;;;;;5044185;28;20415;-66
2021/06/12 06:46:28;;;;;;;13.27;9.80;;;23.60;1.00;;;;;;5037212;28;20052;-66
2021/06/12 06:49:16;;;;;;;10.07;9.18;;;23.50;1.00;;;;;;5023255;28;20045;-67
2021/06/12 06:52:06;;;;;;;11.52;8.80;;;23.70;1.00;;;;;;5042785;28;20045;-66
2021/06/12 06:54:54;;;;;;;9.85;8.88;;;24.00;1.00;;;;;;5045122;28;20049;-66
2021/06/12 06:57:42;;;;;;;9.25;8.35;;;23.70;1.00;;;;;;5036906;28;20057;-66
2021/06/12 07:00:32;;;;;;;10.55;9.45;;;23.80;1.00;;;;;;5036630;28;20161;-68
2021/06/12 07:03:21;;;;;;;12.02;9.27;;;23.40;1.00;;;;;;5026857;28;20463;-65
2021/06/12 07:06:09;;;;;;;9.45;8.25;;;23.60;1.00;;;;;;5046098;28;20123;-65
2021/06/12 07:08:58;;;;;;;9.23;6.82;;;24.30;1.00;;;;;;5041933;28;20061;-66
2021/06/12 07:11:46;;;;;;;7.72;6.70;;;24.70;1.00;;;;;;5037616;28;20140;-66
2021/06/12 07:14:36;;;;;;;7.35;6.70;;;24.50;1.00;;;;;;5039739;28;20049;-65
2021/06/12 07:17:23;;;;;;;8.63;6.60;;;24.60;1.00;;;;;;5038730;28;20128;-67
2021/06/12 07:20:23;;;;;;;8.57;7.20;;;24.60;1.00;;;;;;5043574;28;20085;-66
2021/06/12 07:23:12;;;;;;;9.75;6.93;;;24.20;1.00;;;;;;5039879;28;20136;-66
2021/06/12 07:26:01;;;;;;;10.35;6.90;;;24.20;1.00;;;;;;5042234;28;20045;-66
2021/06/12 07:28:50;;;;;;;9.07;7.35;;;24.50;1.00;;;;;;5040858;28;20060;-66
2021/06/12 07:31:54;;;;;;;8.25;7.00;;;24.00;1.00;;;;;;5042677;28;20037;-65
2021/06/12 07:34:42;;;;;;;7.82;7.03;;;24.70;1.00;;;;;;5047969;28;20044;-66
2021/06/12 07:37:30;;;;;;;10.88;6.80;;;24.20;1.00;;;;;;5044113;28;20135;-66
2021/06/12 07:40:18;;;;;;;7.00;6.40;;;25.10;1.00;;;;;;5042375;28;20539;-66
2021/06/12 07:43:07;;;;;;;7.63;6.63;;;25.40;1.00;;;;;;5042569;28;20053;-65
2021/06/12 07:45:55;;;;;;;9.77;7.03;;;24.70;1.00;;;;;;5046928;28;20048;-66
2021/06/12 07:48:43;;;;;;;8.70;6.43;;;24.50;1.00;;;;;;5045313;28;20072;-66
2021/06/12 07:51:33;;;;;;;6.35;5.75;;;24.50;1.00;;;;;;5041583;28;20164;-66
2021/06/12 07:54:21;;;;;;;7.70;6.90;;;24.70;1.00;;;;;;5041525;28;20108;-65
2021/06/12 07:57:09;;;;;;;7.82;7.13;;;24.60;1.00;;;;;;5045556;28;20076;-65
2021/06/12 07:59:58;;;;;;;7.63;6.93;;;24.20;1.00;;;;;;5046413;28;20124;-66
2021/06/12 08:02:46;;;;;;;8.85;7.53;;;24.20;1.00;;;;;;5042381;28;20033;-65
2021/06/12 08:05:34;;;;;;;9.50;7.93;;;24.30;1.00;;;;;;5044002;28;20167;-66
2021/06/12 08:08:22;;;;;;;8.55;7.32;;;23.60;1.00;;;;;;5039700;28;20103;-66
2021/06/12 08:11:10;;;;;;;8.02;7.32;;;23.60;1.00;;;;;;5044126;28;20535;-66
2021/06/12 08:13:58;;;;;;;8.00;7.30;;;24.00;1.00;;;;;;5041523;28;20107;-66
2021/06/12 08:16:47;;;;;;;10.18;7.15;;;24.40;1.00;;;;;;5044359;28;20143;-66
2021/06/12 08:19:36;;;;;;;7.10;6.50;;;24.00;1.00;;;;;;5040365;28;20049;-66
2021/06/12 08:22:24;;;;;;;6.70;6.00;;;24.00;1.00;;;;;;5011783;28;20128;-66
2021/06/12 08:25:12;;;;;;;6.20;5.57;;;24.70;1.00;;;;;;5048109;28;20045;-66
2021/06/12 08:28:02;;;;;;;5.20;4.70;;;24.50;1.00;;;;;;5044777;28;20052;-66
2021/06/12 08:30:50;;;;;;;5.85;5.35;;;24.30;1.00;;;;;;5024613;28;20048;-66
2021/06/12 08:33:40;;;;;;;6.40;5.28;;;24.10;1.00;;;;;;5041371;28;20136;-65
2021/06/12 08:36:28;;;;;;;12.70;6.75;;;24.70;1.00;;;;;;5044109;28;20099;-67
2021/06/12 08:39:16;;;;;;;7.40;6.05;;;25.40;1.00;;;;;;5044772;28;20048;-66
2021/06/12 08:42:05;;;;;;;5.93;5.32;;;24.70;1.00;;;;;;5041666;28;20052;-67
2021/06/12 08:44:55;;;;;;;6.00;5.05;;;24.70;1.00;;;;;;5043194;28;20052;-65
2021/06/12 08:47:43;;;;;;;4.70;4.10;;;25.40;1.00;;;;;;5043177;28;20184;-66
2021/06/12 08:50:32;;;;;;;5.55;3.67;;;25.20;1.00;;;;;;5045887;28;20059;-67
2021/06/12 08:53:20;;;;;;;7.55;3.00;;;24.90;1.00;;;;;;5040542;28;20053;-67
2021/06/12 08:56:08;;;;;;;4.28;3.42;;;25.10;1.00;;;;;;5041189;28;20446;-67
2021/06/12 08:58:56;;;;;;;6.15;3.20;;;25.00;1.00;;;;;;5040622;28;20124;-65
2021/06/12 09:01:46;;;;;;;3.90;3.10;;;25.00;1.00;;;;;;5042887;28;20488;-67
2021/06/12 09:04:37;;;;;;;3.00;2.80;;;25.00;1.00;;;;;;5046672;28;20439;-66
2021/06/12 09:07:28;;;;;;;3.97;3.17;;;24.90;1.00;;;;;;5042255;28;20056;-66
2021/06/12 09:10:24;;;;;;;4.30;3.10;;;24.70;1.00;;;;;;5042408;28;20515;-66
2021/06/12 09:13:12;;;;;;;6.18;3.05;;;25.00;1.00;;;;;;5039226;28;20409;-66
2021/06/12 09:16:01;;;;;;;4.90;2.70;;;25.40;1.00;;;;;;5044525;28;20037;-67
2021/06/12 09:18:50;;;;;;;7.70;3.10;;;24.90;1.00;;;;;;5045337;28;20504;-66
2021/06/12 09:21:40;;;;;;;3.50;3.20;;;25.00;1.00;;;;;;5036815;28;20130;-67
2021/06/12 09:24:32;;;;;;;6.55;3.35;;;25.80;1.00;;;;;;5028914;28;20053;-68
2021/06/12 09:27:22;;;;;;;;;;;24.70;1.00;;;;;;5040625;28;20134;-67
2021/06/12 09:30:11;;;;;;;6.25;3.53;;;25.10;1.00;;;;;;5046240;28;19942;-66
2021/06/12 09:32:59;;;;;;;6.82;3.90;;;25.40;1.00;;;;;;5038837;28;20614;-67
2021/06/12 09:35:47;;;;;;;4.32;3.78;;;24.80;1.00;;;;;;5041868;28;20109;-66
2021/06/12 09:38:36;;;;;;;3.70;3.40;;;24.80;1.00;;;;;;5037981;28;20048;-67
2021/06/12 09:41:28;;;;;;;6.05;3.50;;;25.10;1.00;;;;;;5042324;28;20080;-66
2021/06/12 09:44:31;;;;;;;3.88;3.47;;;25.10;1.00;;;;;;5030319;28;20590;-67
2021/06/12 09:47:24;;;;;;;8.18;3.90;;;25.10;1.00;;;;;;5042700;28;20577;-67
2021/06/12 09:50:14;;;;;;;5.57;3.70;;;25.50;1.00;;;;;;5039325;28;20067;-66
2021/06/12 09:53:11;;;;;;;4.85;4.05;;;25.80;1.00;;;;;;5035687;28;20041;-67
2021/06/12 09:56:09;;;;;;;5.20;4.18;;;25.60;1.00;;;;;;5038573;28;20057;-66
2021/06/12 09:59:00;;;;;;;9.98;4.55;;;25.70;1.00;;;;;;5037968;28;20518;-66
2021/06/12 10:01:51;;;;;;;12.65;4.55;;;25.30;1.00;;;;;;5033629;28;20053;-65
2021/06/12 10:04:57;;;;;;;5.30;4.10;;;25.70;1.00;;;;;;5032298;28;20504;-67
2021/06/12 10:07:45;;;;;;;6.43;4.00;;;26.30;1.00;;;;;;5032077;28;20515;-66
2021/06/12 10:10:33;;;;;;;7.15;4.70;;;25.60;1.00;;;;;;5032615;28;20670;-66
2021/06/12 10:13:22;;;;;;;11.27;4.05;;;25.60;1.00;;;;;;5033374;28;20127;-66
2021/06/12 10:16:13;;;;;;;5.68;3.63;;;26.40;1.00;;;;;;5040079;28;20083;-66
2021/06/12 10:19:05;;;;;;;4.88;3.58;;;25.60;1.00;;;;;;5019027;28;20047;-66
2021/06/12 10:21:53;;;;;;;6.07;3.90;;;25.70;1.00;;;;;;5031902;28;20049;-67
2021/06/12 10:24:41;;;;;;;4.70;3.38;;;25.80;1.00;;;;;;5032861;28;20094;-66
2021/06/12 10:27:30;;;;;;;5.03;3.65;;;26.30;1.00;;;;;;5020196;28;20427;-67
2021/06/12 10:30:20;;;;;;;4.22;3.83;;;26.10;1.00;;;;;;5037872;28;20080;-66
2021/06/12 10:33:14;;;;;;;4.32;3.60;;;25.80;1.00;;;;;;5037437;28;20048;-67
2021/06/12 10:36:13;;;;;;;10.70;3.75;;;25.70;1.00;;;;;;5018883;28;20456;-66
2021/06/12 10:39:02;;;;;;;5.95;3.47;;;25.90;1.00;;;;;;5032674;28;20049;-67
2021/06/12 10:42:11;;;;;;;3.95;3.53;;;25.90;1.00;;;;;;5028616;28;20333;-67
2021/06/12 10:45:12;;;;;;;6.25;3.65;;;25.70;1.00;;;;;;5037934;28;20516;-66
2021/06/12 10:48:00;;;;;;;7.10;3.67;;;25.90;1.00;;;;;;5037258;28;20501;-65
2021/06/12 10:50:50;;;;;;;3.83;3.10;;;26.50;1.00;;;;;;5020259;28;20072;-67
2021/06/12 10:53:41;;;;;;;4.28;3.00;;;26.30;1.00;;;;;;5031048;28;20059;-67
2021/06/12 10:56:35;;;;;;;7.20;3.80;;;26.80;1.00;;;;;;5032744;28;20067;-66
2021/06/12 10:59:45;;;;;;;5.72;3.60;;;26.80;1.00;;;;;;5033765;28;20110;-66
2021/06/12 11:02:53;;;;;;;5.15;3.20;;;26.70;1.00;;;;;;5034493;28;20037;-68
2021/06/12 11:05:41;;;;;;;8.02;4.00;;;26.40;1.00;;;;;;5039911;28;20048;-65
2021/06/12 11:08:31;;;;;;;4.88;3.42;;;26.60;1.00;;;;;;5023264;28;20488;-65
2021/06/12 11:11:32;;;;;;;4.13;3.45;;;26.10;1.00;;;;;;5033774;28;20195;-66
2021/06/12 11:14:31;;;;;;;4.40;3.20;;;27.10;1.00;;;;;;5040524;28;20052;-66
2021/06/12 11:17:19;;;;;;;5.90;3.22;;;26.10;1.00;;;;;;5039530;28;20429;-68
2021/06/12 11:20:30;;;;;;;5.65;3.40;;;26.00;1.00;;;;;;5041422;28;20064;-67
2021/06/12 11:23:20;;;;;;;4.05;2.92;;;27.00;1.00;;;;;;5038181;28;20175;-68
2021/06/12 11:26:11;;;;;;;6.00;2.90;;;26.80;1.00;;;;;;5038145;28;20532;-68
2021/06/12 11:29:08;;;;;;;3.25;2.50;;;26.80;1.00;;;;;;5035618;28;20063;-67
2021/06/12 11:32:16;;;;;;;3.33;3.00;;;27.30;1.00;;;;;;5036413;28;20144;-68
2021/06/12 11:35:06;;;;;;;5.28;2.40;;;27.30;1.00;;;;;;5039146;28;20060;-67
2021/06/12 11:37:53;;;;;;;3.35;2.67;;;27.00;1.00;;;;;;5037080;28;20350;-68
2021/06/12 11:40:52;;;;;;;6.80;2.08;;;27.20;1.00;;;;;;5034363;28;20573;-69
2021/06/12 11:43:43;;;;;;;2.38;2.17;;;26.50;1.00;;;;;;5037079;28;20136;-68
2021/06/12 11:46:33;;;;;;;11.63;2.65;;;26.30;1.00;;;;;;5037043;28;20105;-70
2021/06/12 11:49:22;;;;;;;4.50;2.10;;;26.70;1.00;;;;;;5023622;28;20065;-67
2021/06/12 11:52:10;;;;;;;3.33;2.22;;;27.30;1.00;;;;;;5040264;28;20041;-68
2021/06/12 11:55:10;;;;;;;3.08;2.30;;;27.50;1.00;;;;;;5037862;28;20084;-68
2021/06/12 11:57:58;;;;;;;3.22;2.30;;;27.40;1.00;;;;;;5037052;28;20055;-67
2021/06/12 12:00:48;;;;;;;2.08;1.88;;;26.10;1.00;;;;;;5036789;28;20132;-66
2021/06/12 12:03:37;;;;;;;4.43;2.17;;;26.80;1.00;;;;;;5039064;28;20602;-67
2021/06/12 12:06:25;;;;;;;2.55;1.90;;;27.20;1.00;;;;;;5040714;28;20355;-67
2021/06/12 12:09:23;;;;;;;6.85;2.83;;;27.40;1.00;;;;;;5021445;28;20288;-68
2021/06/12 12:12:14;;;;;;;4.03;1.77;;;27.70;1.00;;;;;;5035070;28;20124;-68
2021/06/12 12:15:03;;;;;;;5.40;1.75;;;27.00;1.00;;;;;;5035842;28;20049;-68
2021/06/12 12:18:02;;;;;;;2.75;1.90;;;27.00;1.00;;;;;;5037404;28;20079;-67
2021/06/12 12:20:52;;;;;;;5.95;1.85;;;26.40;1.00;;;;;;5039203;28;20400;-68
2021/06/12 12:23:40;;;;;;;3.38;2.15;;;26.90;1.00;;;;;;5038446;28;20045;-69
2021/06/12 12:26:29;;;;;;;2.33;1.92;;;27.50;1.00;;;;;;5020856;28;20056;-67
2021/06/12 12:29:18;;;;;;;3.45;2.13;;;27.00;1.00;;;;;;5033086;28;20045;-67
2021/06/12 12:32:07;;;;;;;3.38;1.70;;;26.90;1.00;;;;;;5032953;28;20146;-68
2021/06/12 12:35:09;;;;;;;2.50;1.70;;;27.30;1.00;;;;;;5039579;28;20518;-68
2021/06/12 12:38:11;;;;;;;4.07;1.77;;;26.60;1.00;;;;;;5038857;28;20090;-68
2021/06/12 12:41:04;;;;;;;2.10;1.80;;;26.20;1.00;;;;;;5035551;28;20080;-69
2021/06/12 12:44:06;;;;;;;3.97;1.88;;;27.20;1.00;;;;;;5035452;28;20052;-67
2021/06/12 12:46:55;;;;;;;2.45;1.75;;;26.70;1.00;;;;;;5037325;28;20565;-67
2021/06/12 12:49:43;;;;;;;4.80;1.88;;;27.00;1.00;;;;;;5033969;28;20085;-68
2021/06/12 12:52:32;;;;;;;3.50;2.03;;;26.90;1.00;;;;;;5035392;28;20139;-68
2021/06/12 12:55:20;;;;;;;5.63;3.88;;;27.00;1.00;;;;;;5009971;28;20111;-68
2021/06/12 12:58:09;;;;;;;4.57;2.20;;;27.10;1.00;;;;;;5032134;28;20608;-68
2021/06/12 13:01:08;;;;;;;3.50;1.98;;;26.70;1.00;;;;;;5018588;28;20048;-68
2021/06/12 13:03:57;;;;;;;3.15;1.85;;;26.70;1.00;;;;;;5021682;28;20495;-68
2021/06/12 13:06:45;;;;;;;2.85;2.22;;;26.80;1.00;;;;;;5039217;28;20928;-68
2021/06/12 13:09:35;;;;;;;3.70;1.95;;;27.00;1.00;;;;;;5035089;28;20420;-66
2021/06/12 13:12:23;;;;;;;2.42;1.65;;;27.00;1.00;;;;;;5018364;28;20301;-68
2021/06/12 13:15:17;;;;;;;3.80;1.98;;;27.30;1.00;;;;;;5019335;28;20068;-67
2021/06/12 13:18:10;;;;;;;2.10;1.90;;;26.90;1.00;;;;;;5036811;28;20147;-67
2021/06/12 13:21:08;;;;;;;2.33;1.70;;;27.30;1.00;;;;;;5038436;28;20049;-67
2021/06/12 13:24:01;;;;;;;2.00;1.75;;;28.00;1.00;;;;;;5035414;28;20041;-67
2021/06/12 13:26:50;;;;;;;2.88;1.60;;;27.70;1.00;;;;;;5018954;28;20045;-67
2021/06/12 13:29:38;;;;;;;4.25;1.98;;;26.60;1.00;;;;;;5031903;28;20126;-69
2021/06/12 13:32:27;;;;;;;4.05;2.00;;;26.60;1.00;;;;;;5032577;28;20580;-68
2021/06/12 13:35:20;;;;;;;2.97;1.50;;;27.70;1.00;;;;;;5040518;28;20049;-68
2021/06/12 13:38:10;;;;;;;1.85;1.73;;;27.50;1.00;;;;;;5016151;28;20542;-68
2021/06/12 13:41:00;;;;;;;4.20;1.70;;;27.90;1.00;;;;;;5033047;28;20534;-68
2021/06/12 13:43:51;;;;;;;3.67;1.55;;;28.10;1.00;;;;;;5034020;28;20072;-68
2021/06/12 13:46:39;;;;;;;2.70;1.60;;;27.20;1.00;;;;;;5037868;28;20227;-68
2021/06/12 13:49:27;;;;;;;3.22;1.63;;;27.00;1.00;;;;;;5021395;28;20061;-68
2021/06/12 13:52:15;;;;;;;3.42;1.70;;;27.40;1.00;;;;;;5030272;28;20411;-68
2021/06/12 13:55:09;;;;;;;2.25;1.73;;;27.30;1.00;;;;;;5017135;28;20547;-68
2021/06/12 13:57:58;;;;;;;2.90;1.70;;;27.90;1.00;;;;;;5035607;28;20056;-67
2021/06/12 14:00:48;;;;;;;2.92;1.98;;;28.10;1.00;;;;;;5021051;28;20053;-68
2021/06/12 14:03:36;;;;;;;2.53;1.70;;;28.00;1.00;;;;;;5033514;28;20420;-67
2021/06/12 14:06:24;;;;;;;6.25;2.50;;;27.20;1.00;;;;;;5033015;28;20053;-69
2021/06/12 14:09:12;;;;;;;4.55;2.17;;;27.20;1.00;;;;;;5017549;28;20424;-68
2021/06/12 14:12:00;;;;;;;2.88;1.60;;;28.30;1.00;;;;;;5016601;28;20057;-69
2021/06/12 14:14:49;;;;;;;1.40;1.30;;;27.60;1.00;;;;;;5018381;28;20522;-67
2021/06/12 14:17:38;;;;;;;2.45;1.13;;;27.00;1.00;;;;;;5016585;28;20144;-69
2021/06/12 14:20:26;;;;;;;1.70;1.35;;;27.90;1.00;;;;;;5012086;28;20471;-69
2021/06/12 14:23:14;;;;;;;3.13;1.38;;;27.60;1.00;;;;;;5015412;28;20109;-68
2021/06/12 14:26:07;;;;;;;3.72;1.48;;;28.10;1.00;;;;;;5004690;28;20138;-69
2021/06/12 14:28:58;;;;;;;1.30;1.20;;;28.30;1.00;;;;;;5017334;28;20467;-69
2021/06/12 14:31:46;;;;;;;1.48;1.38;;;27.80;1.00;;;;;;4998616;28;20058;-69
2021/06/12 14:34:36;;;;;;;1.73;1.20;;;28.30;1.00;;;;;;5018747;28;20471;-71
2021/06/12 14:37:24;;;;;;;1.70;1.20;;;27.70;1.00;;;;;;5018249;28;20084;-66
2021/06/12 14:40:13;;;;;;;1.70;1.13;;;28.20;1.00;;;;;;5019000;28;20104;-70
2021/06/12 14:43:01;;;;;;;1.98;1.10;;;27.70;1.00;;;;;;4998884;28;20727;-69
2021/06/12 14:45:49;;;;;;;2.40;1.20;;;27.70;1.00;;;;;;5017125;28;20077;-68